createdAt,value
2023-05-04T00:00:45.867Z,7.73
2023-05-04T00:03:15.673Z,9.30
2023-05-04T00:05:44.157Z,9.30
2023-05-04T00:08:12.633Z,7.30
2023-05-04T00:10:41.080Z,7.93
2023-05-04T00:13:09.466Z,7.80
2023-05-04T00:15:37.912Z,7.57
2023-05-04T00:18:06.218Z,7.93
2023-05-04T00:20:35.933Z,8.07
2023-05-04T00:23:04.247Z,8.33
2023-05-04T00:25:32.577Z,8.97
2023-05-04T00:28:00.933Z,8.20
2023-05-04T00:30:29.212Z,8.20
2023-05-04T00:32:57.541Z,11.70
2023-05-04T00:35:26.283Z,10.40
2023-05-04T00:37:55.919Z,8.00
2023-05-04T00:40:24.669Z,7.47
2023-05-04T00:42:52.974Z,10.23
2023-05-04T00:45:21.378Z,8.33
2023-05-04T00:47:50.866Z,8.53
2023-05-04T00:50:19.302Z,8.93
2023-05-04T00:52:49.804Z,7.73
2023-05-04T00:55:19.912Z,8.60
2023-05-04T00:57:50.915Z,12.23
2023-05-04T01:00:19.534Z,7.63
2023-05-04T01:02:47.848Z,7.20
2023-05-04T01:05:16.960Z,8.50
2023-05-04T01:07:57.294Z,8.60
2023-05-04T01:10:35.012Z,7.83
2023-05-04T01:13:07.988Z,8.50
2023-05-04T01:15:37.695Z,9.23
2023-05-04T01:18:06.046Z,10.53
2023-05-04T01:20:35.546Z,9.03
2023-05-04T01:23:05.439Z,8.33
2023-05-04T01:25:38.068Z,8.33
2023-05-04T01:28:09.838Z,8.40
2023-05-04T01:30:41.047Z,9.00
2023-05-04T01:33:10.096Z,8.77
2023-05-04T01:35:39.067Z,8.43
2023-05-04T01:38:08.705Z,9.07
2023-05-04T01:40:37.112Z,10.03
2023-05-04T01:43:05.590Z,8.83
2023-05-04T01:45:34.012Z,9.73
2023-05-04T01:48:02.296Z,9.80
2023-05-04T01:50:30.578Z,9.97
2023-05-04T01:52:58.873Z,9.93
2023-05-04T01:55:28.657Z,9.40
2023-05-04T01:57:56.990Z,9.40
2023-05-04T02:00:25.389Z,9.10
2023-05-04T02:02:53.833Z,10.37
2023-05-04T02:05:22.297Z,9.80
2023-05-04T02:07:50.580Z,10.10
2023-05-04T02:10:18.925Z,9.77
2023-05-04T02:12:48.593Z,10.13
2023-05-04T02:15:17.091Z,11.90
2023-05-04T02:17:45.415Z,12.17
2023-05-04T02:20:15.139Z,12.50
2023-05-04T02:22:47.387Z,10.03
2023-05-04T02:25:15.938Z,9.60
2023-05-04T02:27:44.427Z,10.57
2023-05-04T02:30:15.285Z,11.43
2023-05-04T02:32:43.598Z,10.97
2023-05-04T02:35:13.019Z,11.67
2023-05-04T02:37:41.462Z,13.00
2023-05-04T02:40:10.869Z,10.13
2023-05-04T02:42:39.094Z,11.57
2023-05-04T02:45:09.116Z,10.53
2023-05-04T02:47:38.918Z,10.43
2023-05-04T02:50:08.650Z,10.87
2023-05-04T02:52:37.228Z,11.07
2023-05-04T02:55:06.700Z,10.70
2023-05-04T02:57:35.554Z,11.43
2023-05-04T03:00:06.968Z,11.47
2023-05-04T03:02:35.730Z,10.70
2023-05-04T03:05:05.785Z,10.77
2023-05-04T03:07:34.226Z,11.30
2023-05-04T03:10:02.671Z,11.83
2023-05-04T03:12:32.156Z,11.40
2023-05-04T03:15:00.697Z,12.87
2023-05-04T03:17:29.222Z,11.93
2023-05-04T03:19:57.832Z,11.93
2023-05-04T03:22:28.923Z,13.00
2023-05-04T03:24:57.423Z,11.97
2023-05-04T03:27:26.409Z,13.07
2023-05-04T03:29:54.731Z,12.33
2023-05-04T03:32:24.796Z,11.87
2023-05-04T03:34:53.138Z,12.70
2023-05-04T03:37:23.914Z,12.17
2023-05-04T03:39:53.573Z,11.23
2023-05-04T03:42:21.854Z,11.13
2023-05-04T03:44:50.159Z,13.60
2023-05-04T03:47:18.488Z,14.70
2023-05-04T03:49:48.889Z,12.67
2023-05-04T03:52:17.265Z,14.43
2023-05-04T03:54:45.524Z,12.73
2023-05-04T03:57:15.762Z,13.70
2023-05-04T03:59:44.367Z,12.97
2023-05-04T04:02:13.611Z,15.33
2023-05-04T04:04:42.733Z,13.23
2023-05-04T04:07:12.003Z,13.80
2023-05-04T04:09:40.835Z,13.93
2023-05-04T04:12:09.075Z,13.90
2023-05-04T04:14:38.700Z,12.87
2023-05-04T04:17:07.036Z,14.07
2023-05-04T04:19:35.826Z,15.13
2023-05-04T04:22:04.103Z,14.50
2023-05-04T04:24:33.601Z,14.63
2023-05-04T04:27:02.229Z,14.67
2023-05-04T04:29:30.633Z,15.90
2023-05-04T04:32:00.397Z,12.93
2023-05-04T04:34:28.784Z,14.00
2023-05-04T04:36:57.658Z,12.87
2023-05-04T04:39:26.244Z,12.33
2023-05-04T04:41:54.579Z,15.43
2023-05-04T04:44:22.863Z,13.73
2023-05-04T04:46:51.287Z,14.87
2023-05-04T04:49:21.037Z,18.90
2023-05-04T04:51:49.663Z,16.03
2023-05-04T04:54:18.432Z,14.50
2023-05-04T04:56:47.866Z,17.70
2023-05-04T04:59:17.353Z,15.73
2023-05-04T05:01:45.645Z,14.23
2023-05-04T05:04:14.414Z,12.93
2023-05-04T05:06:44.060Z,13.13
2023-05-04T05:09:12.323Z,13.57
2023-05-04T05:11:40.648Z,12.83
2023-05-04T05:14:09.009Z,11.30
2023-05-04T05:16:37.328Z,11.57
2023-05-04T05:19:05.791Z,11.33
2023-05-04T05:21:34.167Z,11.23
2023-05-04T05:24:03.945Z,12.07
2023-05-04T05:26:32.225Z,12.97
2023-05-04T05:29:00.515Z,11.87
2023-05-04T05:31:28.834Z,12.43
2023-05-04T05:33:57.178Z,11.57
2023-05-04T05:36:25.529Z,11.60
2023-05-04T05:38:53.821Z,12.73
2023-05-04T05:41:24.036Z,11.87
2023-05-04T05:43:52.384Z,11.70
2023-05-04T05:46:20.898Z,11.83
2023-05-04T05:48:49.326Z,11.23
2023-05-04T05:51:17.692Z,13.00
2023-05-04T05:53:46.362Z,13.37
2023-05-04T05:56:15.122Z,12.73
2023-05-04T05:58:45.018Z,11.43
2023-05-04T06:01:13.379Z,11.77
2023-05-04T06:03:42.522Z,10.90
2023-05-04T06:06:11.433Z,12.80
2023-05-04T06:08:39.721Z,11.77
2023-05-04T06:11:08.112Z,12.97
2023-05-04T06:13:36.620Z,11.57
2023-05-04T06:16:06.603Z,11.00
2023-05-04T06:18:35.068Z,10.53
2023-05-04T06:21:04.085Z,10.90
2023-05-04T06:23:33.231Z,11.07
2023-05-04T06:26:01.610Z,11.00
2023-05-04T06:28:29.893Z,10.80
2023-05-04T06:30:58.190Z,11.03
2023-05-04T06:33:28.004Z,10.60
2023-05-04T06:35:56.318Z,11.20
2023-05-04T06:38:24.624Z,11.50
2023-05-04T06:40:53.071Z,14.00
2023-05-04T06:43:21.484Z,11.43
2023-05-04T06:45:49.850Z,10.43
2023-05-04T06:48:18.443Z,11.87
2023-05-04T06:50:48.751Z,10.33
2023-05-04T06:53:17.081Z,10.87
2023-05-04T06:55:45.613Z,12.07
2023-05-04T06:58:14.225Z,10.57
2023-05-04T07:00:43.276Z,11.07
2023-05-04T07:03:11.794Z,11.47
2023-05-04T07:05:40.410Z,10.73
2023-05-04T07:08:10.246Z,15.13
2023-05-04T07:10:39.017Z,10.73
2023-05-04T07:13:07.481Z,12.17
2023-05-04T07:15:36.885Z,13.23
2023-05-04T07:18:05.329Z,11.13
2023-05-04T07:20:33.641Z,14.30
2023-05-04T07:23:02.005Z,11.30
2023-05-04T07:25:31.950Z,10.60
2023-05-04T07:28:00.153Z,11.33
2023-05-04T07:30:29.008Z,10.50
2023-05-04T07:32:57.464Z,9.83
2023-05-04T07:35:25.839Z,11.03
2023-05-04T07:37:54.148Z,10.57
2023-05-04T07:40:22.567Z,10.13
2023-05-04T07:42:52.824Z,11.33
2023-05-04T07:45:21.152Z,10.53
2023-05-04T07:47:49.455Z,11.13
2023-05-04T07:50:18.329Z,10.87
2023-05-04T07:52:47.873Z,12.20
2023-05-04T07:55:16.330Z,11.07
2023-05-04T07:57:44.600Z,10.80
2023-05-04T08:00:16.166Z,10.67
2023-05-04T08:02:45.722Z,11.23
2023-05-04T08:05:14.140Z,10.47
2023-05-04T08:07:42.388Z,10.93
2023-05-04T08:10:11.695Z,11.10
2023-05-04T08:12:41.669Z,12.93
2023-05-04T08:15:11.663Z,10.60
2023-05-04T08:17:41.432Z,11.90
2023-05-04T08:20:10.989Z,11.60
2023-05-04T08:22:39.911Z,11.13
2023-05-04T08:25:09.513Z,10.80
2023-05-04T08:27:38.003Z,10.97
2023-05-04T08:30:07.569Z,10.80
2023-05-04T08:32:36.424Z,11.00
2023-05-04T08:35:07.025Z,10.43
2023-05-04T08:37:35.566Z,10.80
2023-05-04T08:40:04.734Z,10.80
2023-05-04T08:42:34.697Z,9.83
2023-05-04T08:45:03.127Z,10.37
2023-05-04T08:47:31.462Z,10.27
2023-05-04T08:49:59.698Z,11.07
2023-05-04T08:52:30.155Z,9.90
2023-05-04T08:54:59.533Z,8.83
2023-05-04T08:57:28.563Z,8.97
2023-05-04T08:59:57.849Z,9.80
2023-05-04T09:02:27.822Z,9.20
2023-05-04T09:04:56.122Z,8.43
2023-05-04T09:07:24.764Z,8.80
2023-05-04T09:09:54.779Z,9.37
2023-05-04T09:12:23.033Z,9.07
2023-05-04T09:14:51.515Z,9.73
2023-05-04T09:17:25.840Z,8.77
2023-05-04T09:20:01.935Z,8.00
2023-05-04T09:22:31.178Z,7.93
2023-05-04T09:25:09.721Z,8.87
2023-05-04T09:27:38.734Z,9.43
2023-05-04T09:30:09.186Z,8.30
2023-05-04T09:32:45.994Z,8.50
2023-05-04T09:35:29.152Z,8.20
2023-05-04T09:38:01.254Z,8.90
2023-05-04T09:40:36.330Z,7.97
2023-05-04T09:43:06.933Z,6.77
2023-05-04T09:45:41.679Z,7.80
2023-05-04T09:48:17.581Z,8.30
2023-05-04T09:50:50.783Z,7.40
2023-05-04T09:53:23.383Z,7.67
2023-05-04T09:56:05.742Z,7.77
2023-05-04T09:58:35.794Z,8.10
2023-05-04T10:01:04.404Z,8.00
2023-05-04T10:03:33.532Z,7.75
2023-05-04T10:06:04.335Z,7.13
2023-05-04T10:08:33.569Z,8.93
2023-05-04T10:11:03.233Z,6.72
2023-05-04T10:13:31.678Z,6.70
2023-05-04T10:16:15.160Z,7.13
2023-05-04T10:19:02.767Z,5.68
2023-05-04T10:21:39.590Z,6.75
2023-05-04T10:24:32.640Z,7.63
2023-05-04T10:27:09.940Z,5.50
2023-05-04T10:29:39.655Z,5.70
2023-05-04T10:32:18.691Z,5.78
2023-05-04T10:34:47.252Z,5.57
2023-05-04T10:37:19.586Z,5.57
2023-05-04T10:39:55.351Z,5.95
2023-05-04T10:42:25.345Z,5.95
2023-05-04T10:44:55.297Z,5.43
2023-05-04T10:47:32.578Z,5.80
2023-05-04T10:50:06.506Z,5.50
2023-05-04T10:52:47.148Z,6.15
2023-05-04T10:55:16.563Z,5.97
2023-05-04T10:57:50.733Z,6.07
2023-05-04T11:00:20.346Z,5.05
2023-05-04T11:02:50.352Z,4.78
2023-05-04T11:05:20.378Z,4.30
2023-05-04T11:07:53.187Z,5.55
2023-05-04T11:10:23.492Z,4.30
2023-05-04T11:12:53.280Z,5.78
2023-05-04T11:15:22.849Z,3.80
2023-05-04T11:17:53.832Z,4.10
2023-05-04T11:20:23.211Z,3.75
2023-05-04T11:22:52.012Z,3.42
2023-05-04T11:25:28.279Z,3.30
2023-05-04T11:27:58.416Z,5.35
2023-05-04T11:30:32.701Z,5.20
2023-05-04T11:33:01.472Z,4.05
2023-05-04T11:35:30.042Z,5.07
2023-05-04T11:37:58.280Z,3.55
2023-05-04T11:40:27.799Z,4.03
2023-05-04T11:42:58.775Z,4.03
2023-05-04T11:45:30.070Z,4.45
2023-05-04T11:47:58.990Z,3.30
2023-05-04T11:50:29.191Z,4.20
2023-05-04T11:53:09.281Z,2.70
2023-05-04T11:55:38.360Z,3.75
2023-05-04T11:58:09.140Z,2.85
2023-05-04T12:00:39.535Z,3.05
2023-05-04T12:03:09.919Z,4.25
2023-05-04T12:05:40.074Z,3.10
2023-05-04T12:08:12.566Z,7.32
2023-05-04T12:10:41.469Z,4.35
2023-05-04T12:13:18.718Z,3.72
2023-05-04T12:15:47.165Z,2.97
2023-05-04T12:18:29.694Z,2.80
2023-05-04T12:21:08.445Z,2.50
2023-05-04T12:23:37.591Z,2.78
2023-05-04T12:26:06.656Z,2.67
2023-05-04T12:28:37.034Z,3.10
2023-05-04T12:31:06.865Z,3.35
2023-05-04T12:33:36.078Z,4.13
2023-05-04T12:36:06.178Z,2.60
2023-05-04T12:38:35.253Z,3.30
2023-05-04T12:41:04.511Z,2.58
2023-05-04T12:43:33.287Z,3.20
2023-05-04T12:46:03.307Z,2.45
2023-05-04T12:48:32.972Z,2.58
2023-05-04T12:51:03.923Z,4.47
2023-05-04T12:53:33.012Z,2.60
2023-05-04T12:56:03.957Z,2.95
2023-05-04T12:58:32.216Z,2.47
2023-05-04T13:01:01.871Z,2.97
2023-05-04T13:03:30.472Z,2.50
2023-05-04T13:05:59.232Z,3.65
2023-05-04T13:08:27.758Z,2.65
2023-05-04T13:10:56.075Z,3.50
2023-05-04T13:13:28.715Z,2.53
2023-05-04T13:15:57.543Z,4.65
2023-05-04T13:18:28.136Z,2.75
2023-05-04T13:20:56.338Z,2.60
2023-05-04T13:23:24.934Z,2.72
2023-05-04T13:25:53.591Z,3.95
2023-05-04T13:28:21.782Z,2.83
2023-05-04T13:30:50.272Z,2.45
2023-05-04T13:33:28.597Z,2.55
2023-05-04T13:36:02.003Z,2.55
2023-05-04T13:38:30.539Z,5.90
2023-05-04T13:40:59.334Z,2.45
2023-05-04T13:43:28.277Z,2.45
2023-05-04T13:45:57.242Z,3.63
2023-05-04T13:48:29.097Z,2.78
2023-05-04T13:50:59.903Z,3.22
2023-05-04T13:53:28.429Z,2.63
2023-05-04T13:55:56.651Z,2.97
2023-05-04T13:58:24.939Z,4.00
2023-05-04T14:00:56.462Z,5.05
2023-05-04T14:03:25.797Z,3.95
2023-05-04T14:05:54.058Z,4.82
2023-05-04T14:08:23.744Z,2.70
2023-05-04T14:10:52.035Z,2.90
2023-05-04T14:13:20.343Z,2.65
2023-05-04T14:15:48.577Z,2.05
2023-05-04T14:18:17.048Z,3.08
2023-05-04T14:20:45.808Z,2.60
2023-05-04T14:23:14.160Z,3.28
2023-05-04T14:25:50.624Z,7.50
2023-05-04T14:28:19.103Z,4.00
2023-05-04T14:30:47.334Z,4.82
2023-05-04T14:33:15.601Z,2.60
2023-05-04T14:35:47.959Z,2.85
2023-05-04T14:38:16.859Z,5.00
2023-05-04T14:40:48.974Z,3.08
2023-05-04T14:43:18.106Z,4.60
2023-05-04T14:45:46.434Z,3.45
2023-05-04T14:48:14.822Z,4.68
2023-05-04T14:50:43.281Z,2.67
2023-05-04T14:53:11.820Z,3.90
2023-05-04T14:55:42.020Z,2.95
2023-05-04T14:58:12.597Z,2.70
2023-05-04T15:00:41.508Z,2.50
2023-05-04T15:03:10.242Z,2.58
2023-05-04T15:05:38.752Z,4.82
2023-05-04T15:08:07.089Z,2.97
2023-05-04T15:10:35.444Z,2.60
2023-05-04T15:13:03.740Z,4.80
2023-05-04T15:15:33.485Z,4.82
2023-05-04T15:18:01.747Z,2.78
2023-05-04T15:20:30.302Z,2.88
2023-05-04T15:23:00.022Z,3.60
2023-05-04T15:25:28.312Z,5.40
2023-05-04T15:27:56.578Z,2.70
2023-05-04T15:30:24.803Z,2.58
2023-05-04T15:32:54.470Z,3.75
2023-05-04T15:35:23.003Z,2.78
2023-05-04T15:37:51.580Z,3.50
2023-05-04T15:40:19.964Z,2.67
2023-05-04T15:42:48.312Z,3.67
2023-05-04T15:45:17.140Z,3.80
2023-05-04T15:47:46.255Z,3.35
2023-05-04T15:50:16.080Z,3.95
2023-05-04T15:52:44.683Z,3.40
2023-05-04T15:55:25.203Z,2.70
2023-05-04T15:57:54.474Z,3.35
2023-05-04T16:00:23.580Z,4.95
2023-05-04T16:02:51.902Z,4.00
2023-05-04T16:05:22.089Z,3.47
2023-05-04T16:07:50.885Z,3.33
2023-05-04T16:10:19.461Z,2.85
2023-05-04T16:12:47.814Z,4.03
2023-05-04T16:15:16.417Z,3.53
2023-05-04T16:17:44.900Z,7.03
2023-05-04T16:20:13.438Z,5.00
2023-05-04T16:22:43.014Z,3.70
2023-05-04T16:25:11.917Z,3.88
2023-05-04T16:27:40.299Z,4.45
2023-05-04T16:30:10.373Z,5.97
2023-05-04T16:32:38.952Z,6.40
2023-05-04T16:35:08.554Z,4.93
2023-05-04T16:37:37.317Z,6.50
2023-05-04T16:40:15.408Z,5.28
2023-05-04T16:42:43.949Z,4.75
2023-05-04T16:45:14.600Z,4.35
2023-05-04T16:47:43.444Z,3.45
2023-05-04T16:50:12.897Z,6.22
2023-05-04T16:52:41.449Z,11.02
2023-05-04T16:55:12.191Z,5.05
2023-05-04T16:57:43.948Z,5.53
2023-05-04T17:00:13.957Z,4.15
2023-05-04T17:02:42.521Z,5.10
2023-05-04T17:05:11.953Z,5.88
2023-05-04T17:07:43.152Z,4.93
2023-05-04T17:10:12.201Z,3.55
2023-05-04T17:12:42.187Z,3.60
2023-05-04T17:15:13.662Z,4.63
2023-05-04T17:17:42.539Z,4.35
2023-05-04T17:20:15.163Z,4.38
2023-05-04T17:22:44.169Z,4.20
2023-05-04T17:25:13.405Z,7.22
2023-05-04T17:27:43.785Z,5.53
2023-05-04T17:30:15.049Z,9.57
2023-05-04T17:32:43.358Z,5.00
2023-05-04T17:35:21.003Z,5.65
2023-05-04T17:37:56.000Z,5.57
2023-05-04T17:40:26.145Z,6.45
2023-05-04T17:42:54.559Z,7.97
2023-05-04T17:45:24.180Z,9.68
2023-05-04T17:47:53.039Z,10.00
2023-05-04T17:50:21.893Z,6.85
2023-05-04T17:52:53.315Z,4.85
2023-05-04T17:55:23.751Z,4.43
2023-05-04T17:57:53.529Z,5.82
2023-05-04T18:00:23.966Z,6.47
2023-05-04T18:02:52.408Z,6.60
2023-05-04T18:05:21.171Z,11.05
2023-05-04T18:07:49.755Z,6.35
2023-05-04T18:10:18.045Z,6.20
2023-05-04T18:12:46.690Z,5.65
2023-05-04T18:15:16.463Z,5.18
2023-05-04T18:17:46.287Z,6.88
2023-05-04T18:20:14.629Z,5.63
2023-05-04T18:22:42.908Z,4.55
2023-05-04T18:25:11.821Z,8.48
2023-05-04T18:27:40.288Z,5.75
2023-05-04T18:30:10.640Z,5.43
2023-05-04T18:32:39.010Z,7.57
2023-05-04T18:35:09.460Z,6.03
2023-05-04T18:37:37.786Z,6.53
2023-05-04T18:40:08.292Z,8.13
2023-05-04T18:42:36.917Z,6.20
2023-05-04T18:45:07.111Z,9.30
2023-05-04T18:47:35.596Z,7.32
2023-05-04T18:50:03.847Z,6.20
2023-05-04T18:52:33.901Z,10.77
2023-05-04T18:55:02.371Z,6.72
2023-05-04T18:57:30.921Z,7.43
2023-05-04T18:59:59.535Z,6.85
2023-05-04T19:02:29.941Z,6.95
2023-05-04T19:04:58.538Z,7.85
2023-05-04T19:07:27.315Z,10.98
2023-05-04T19:09:57.349Z,9.68
2023-05-04T19:12:25.846Z,10.55
2023-05-04T19:14:55.361Z,8.15
2023-05-04T19:17:23.802Z,11.02
2023-05-04T19:19:52.283Z,6.75
2023-05-04T19:22:20.672Z,12.60
2023-05-04T19:24:51.845Z,18.35
2023-05-04T19:27:21.567Z,8.25
2023-05-04T19:29:49.815Z,6.80
2023-05-04T19:32:24.266Z,6.67
2023-05-04T19:34:53.921Z,8.15
2023-05-04T19:37:22.584Z,7.05
2023-05-04T19:39:51.298Z,6.30
2023-05-04T19:42:21.092Z,6.43
2023-05-04T19:44:49.392Z,6.33
2023-05-04T19:47:18.413Z,6.97
2023-05-04T19:49:48.834Z,6.53
2023-05-04T19:52:17.563Z,8.03
2023-05-04T19:54:48.404Z,6.57
2023-05-04T19:57:16.892Z,8.33
2023-05-04T19:59:47.200Z,12.37
2023-05-04T20:02:16.197Z,6.70
2023-05-04T20:04:44.847Z,9.67
2023-05-04T20:07:13.258Z,7.63
2023-05-04T20:09:41.734Z,6.73
2023-05-04T20:12:10.906Z,12.07
2023-05-04T20:14:41.141Z,8.97
2023-05-04T20:17:12.075Z,8.67
2023-05-04T20:19:42.910Z,8.20
2023-05-04T20:22:11.398Z,8.13
2023-05-04T20:24:40.682Z,7.93
2023-05-04T20:27:09.309Z,9.03
2023-05-04T20:29:37.902Z,8.53
2023-05-04T20:32:07.277Z,12.27
2023-05-04T20:34:39.448Z,8.53
2023-05-04T20:37:08.178Z,8.80
2023-05-04T20:39:37.024Z,8.87
2023-05-04T20:42:05.952Z,8.60
2023-05-04T20:44:35.240Z,9.33
2023-05-04T20:47:04.741Z,9.63
2023-05-04T20:49:33.059Z,9.20
2023-05-04T20:52:02.827Z,8.40
2023-05-04T20:54:31.492Z,8.60
2023-05-04T20:57:00.126Z,10.33
2023-05-04T20:59:28.942Z,8.40
2023-05-04T21:01:57.995Z,10.00
2023-05-04T21:04:27.129Z,9.47
2023-05-04T21:06:56.088Z,13.80
2023-05-04T21:09:26.809Z,17.73
2023-05-04T21:11:55.440Z,14.17
2023-05-04T21:14:23.720Z,13.13
2023-05-04T21:16:52.857Z,16.67
2023-05-04T21:19:21.471Z,15.83
2023-05-04T21:21:49.892Z,12.73
2023-05-04T21:24:18.334Z,10.37
2023-05-04T21:26:48.613Z,11.17
2023-05-04T21:29:17.085Z,11.83
2023-05-04T21:31:45.488Z,11.23
2023-05-04T21:34:13.856Z,11.07
2023-05-04T21:36:44.496Z,10.80
2023-05-04T21:39:12.816Z,11.23
2023-05-04T21:41:41.265Z,11.00
2023-05-04T21:44:11.060Z,12.03
2023-05-04T21:46:39.385Z,12.23
2023-05-04T21:49:07.940Z,12.20
2023-05-04T21:51:36.246Z,13.23
2023-05-04T21:54:04.890Z,14.13
2023-05-04T21:56:33.375Z,15.53
2023-05-04T21:59:01.736Z,14.20
2023-05-04T22:01:31.572Z,15.33
2023-05-04T22:03:59.936Z,12.33
2023-05-04T22:06:28.499Z,13.27
2023-05-04T22:08:56.854Z,12.47
2023-05-04T22:11:25.484Z,12.40
2023-05-04T22:13:53.996Z,11.23
2023-05-04T22:16:22.380Z,10.93
2023-05-04T22:18:52.365Z,11.57
2023-05-04T22:21:20.732Z,11.33
2023-05-04T22:23:49.098Z,10.33
2023-05-04T22:26:17.601Z,10.77
2023-05-04T22:28:46.004Z,10.37
2023-05-04T22:31:14.428Z,9.83
2023-05-04T22:33:42.854Z,10.10
2023-05-04T22:36:12.951Z,10.50
2023-05-04T22:38:41.505Z,10.93
2023-05-04T22:41:09.928Z,10.53
2023-05-04T22:43:39.089Z,11.50
2023-05-04T22:46:07.578Z,11.07
2023-05-04T22:48:35.964Z,11.83
2023-05-04T22:51:04.314Z,11.37
2023-05-04T22:53:33.964Z,10.93
2023-05-04T22:56:02.570Z,11.30
2023-05-04T22:58:31.003Z,10.13
2023-05-04T23:00:59.799Z,10.83
2023-05-04T23:03:28.907Z,10.70
2023-05-04T23:06:00.289Z,10.77
2023-05-04T23:08:28.775Z,11.10
2023-05-04T23:10:59.224Z,11.60
2023-05-04T23:13:27.535Z,13.80
2023-05-04T23:15:55.880Z,11.47
2023-05-04T23:18:24.322Z,11.63
2023-05-04T23:20:52.666Z,12.20
2023-05-04T23:23:21.081Z,11.40
2023-05-04T23:25:49.432Z,10.77
2023-05-04T23:28:19.131Z,12.10
2023-05-04T23:30:47.604Z,11.50
2023-05-04T23:33:16.267Z,11.77
2023-05-04T23:35:44.772Z,12.70
2023-05-04T23:38:13.100Z,11.87
2023-05-04T23:40:41.799Z,11.97
2023-05-04T23:43:10.232Z,12.80
2023-05-04T23:45:40.294Z,12.37
2023-05-04T23:48:08.808Z,13.10
2023-05-04T23:50:37.210Z,12.33
2023-05-04T23:53:05.625Z,12.33
2023-05-04T23:55:33.890Z,11.93
2023-05-04T23:58:02.687Z,12.60
